Terminal Aerodrome Forecast
Issued by NWS

Home | Current Version | Previous Version | Text Only | Print | Product List | Glossary On
Versions: 1 2 3 4 5 6 7 8 9 10 11 12 13 14 15 16 17 18 19
976
FTUS41 KILN 232340 AAA
TAFLCK
TAF AMD
KLCK 232340Z 2400/2424 01009KT 5SM BR VCSH SCT010 OVC022
     FM240400 34004KT 5SM -DZ BR OVC010
     FM240800 30004KT 3SM -DZ BR OVC007
     FM241200 31008KT 5SM BR OVC007
     FM241800 30008KT P6SM OVC010
     FM242200 27005KT P6SM OVC022
      AMD NOT SKED=

USA.gov is the U.S. government's official web portal to all federal, state and local government web resources and services.